sensor_id;sensor_type;location;lat;lon;timestamp;pressure;altitude;pressure_sealevel;temperature;humidity
32747;BME280;19118;50.860;13.662;2023-02-15T00:02:55;98369.22;;;-4.15;100.00
32747;BME280;19118;50.860;13.662;2023-02-15T00:07:55;98362.72;;;-4.24;100.00
32747;BME280;19118;50.860;13.662;2023-02-15T00:12:56;98361.34;;;-4.31;100.00
32747;BME280;19118;50.860;13.662;2023-02-15T00:17:56;98342.59;;;-4.34;100.00
32747;BME280;19118;50.860;13.662;2023-02-15T00:22:58;98350.06;;;-4.28;100.00
32747;BME280;19118;50.860;13.662;2023-02-15T00:27:59;98350.41;;;-4.36;100.00
32747;BME280;19118;50.860;13.662;2023-02-15T00:33:00;98352.31;;;-4.40;100.00
32747;BME280;19118;50.860;13.662;2023-02-15T00:38:00;98347.75;;;-4.34;100.00
32747;BME280;19118;50.860;13.662;2023-02-15T00:43:00;98348.31;;;-4.28;100.00
32747;BME280;19118;50.860;13.662;2023-02-15T00:48:01;98343.91;;;-4.26;100.00
32747;BME280;19118;50.860;13.662;2023-02-15T00:53:01;98340.06;;;-4.17;100.00
32747;BME280;19118;50.860;13.662;2023-02-15T00:58:01;98335.66;;;-4.15;100.00
32747;BME280;19118;50.860;13.662;2023-02-15T01:03:02;98326.94;;;-4.31;100.00
32747;BME280;19118;50.860;13.662;2023-02-15T01:08:02;98322.69;;;-4.32;100.00
32747;BME280;19118;50.860;13.662;2023-02-15T01:13:03;98313.91;;;-4.28;100.00
32747;BME280;19118;50.860;13.662;2023-02-15T01:18:03;98313.13;;;-4.30;100.00
32747;BME280;19118;50.860;13.662;2023-02-15T01:23:05;98305.84;;;-4.40;100.00
32747;BME280;19118;50.860;13.662;2023-02-15T01:28:05;98301.50;;;-4.39;100.00
32747;BME280;19118;50.860;13.662;2023-02-15T01:33:06;98305.00;;;-4.40;100.00
32747;BME280;19118;50.860;13.662;2023-02-15T01:38:07;98299.44;;;-4.50;100.00
32747;BME280;19118;50.860;13.662;2023-02-15T01:43:10;98292.72;;;-4.54;100.00
32747;BME280;19118;50.860;13.662;2023-02-15T01:48:20;98290.13;;;-4.54;100.00
32747;BME280;19118;50.860;13.662;2023-02-15T01:53:25;98274.44;;;-4.49;100.00
32747;BME280;19118;50.860;13.662;2023-02-15T01:58:27;98259.13;;;-4.52;100.00
32747;BME280;19118;50.860;13.662;2023-02-15T02:08:48;98244.06;;;-4.61;100.00
32747;BME280;19118;50.860;13.662;2023-02-15T02:13:49;98235.00;;;-4.70;100.00
32747;BME280;19118;50.860;13.662;2023-02-15T02:24:19;98227.66;;;-4.60;100.00
32747;BME280;19118;50.860;13.662;2023-02-15T02:46:14;98213.75;;;-4.75;100.00
32747;BME280;19118;50.860;13.662;2023-02-15T02:51:18;98216.69;;;-4.83;100.00
32747;BME280;19118;50.860;13.662;2023-02-15T03:01:34;98212.03;;;-4.93;100.00
32747;BME280;19118;50.860;13.662;2023-02-15T03:06:40;98199.63;;;-4.85;100.00
32747;BME280;19118;50.860;13.662;2023-02-15T03:11:44;98203.13;;;-4.86;100.00
32747;BME280;19118;50.860;13.662;2023-02-15T03:16:47;98190.56;;;-4.94;100.00
32747;BME280;19118;50.860;13.662;2023-02-15T03:21:50;98193.84;;;-4.90;100.00
32747;BME280;19118;50.860;13.662;2023-02-15T03:26:58;98189.16;;;-4.82;100.00
32747;BME280;19118;50.860;13.662;2023-02-15T03:32:03;98192.34;;;-4.77;100.00
32747;BME280;19118;50.860;13.662;2023-02-15T03:37:12;98190.06;;;-4.66;100.00
32747;BME280;19118;50.860;13.662;2023-02-15T03:42:21;98193.72;;;-4.70;100.00
32747;BME280;19118;50.860;13.662;2023-02-15T03:47:31;98190.38;;;-4.72;100.00
32747;BME280;19118;50.860;13.662;2023-02-15T03:52:35;98197.56;;;-4.79;100.00
32747;BME280;19118;50.860;13.662;2023-02-15T03:57:36;98198.50;;;-4.99;100.00
32747;BME280;19118;50.860;13.662;2023-02-15T04:08:02;98195.31;;;-5.04;100.00
32747;BME280;19118;50.860;13.662;2023-02-15T04:13:03;98197.66;;;-4.99;100.00
32747;BME280;19118;50.860;13.662;2023-02-15T04:18:03;98197.75;;;-5.01;100.00
32747;BME280;19118;50.860;13.662;2023-02-15T04:23:06;98195.31;;;-5.04;100.00
32747;BME280;19118;50.860;13.662;2023-02-15T04:28:24;98189.47;;;-5.07;100.00
32747;BME280;19118;50.860;13.662;2023-02-15T04:33:25;98187.25;;;-5.15;100.00
32747;BME280;19118;50.860;13.662;2023-02-15T04:38:25;98177.84;;;-5.16;100.00
32747;BME280;19118;50.860;13.662;2023-02-15T04:43:25;98181.53;;;-5.21;100.00
32747;BME280;19118;50.860;13.662;2023-02-15T04:48:26;98178.13;;;-5.22;100.00
32747;BME280;19118;50.860;13.662;2023-02-15T04:53:26;98173.09;;;-5.25;100.00
32747;BME280;19118;50.860;13.662;2023-02-15T04:58:27;98178.59;;;-5.33;100.00
32747;BME280;19118;50.860;13.662;2023-02-15T05:03:27;98169.28;;;-5.35;100.00
32747;BME280;19118;50.860;13.662;2023-02-15T05:08:27;98165.94;;;-5.37;100.00
32747;BME280;19118;50.860;13.662;2023-02-15T05:13:28;98160.63;;;-5.34;100.00
32747;BME280;19118;50.860;13.662;2023-02-15T05:18:29;98157.72;;;-5.45;100.00
32747;BME280;19118;50.860;13.662;2023-02-15T05:23:29;98155.03;;;-5.42;100.00
32747;BME280;19118;50.860;13.662;2023-02-15T05:28:29;98148.88;;;-5.40;100.00
32747;BME280;19118;50.860;13.662;2023-02-15T05:33:30;98150.41;;;-5.36;100.00
32747;BME280;19118;50.860;13.662;2023-02-15T05:38:30;98153.06;;;-5.37;100.00
32747;BME280;19118;50.860;13.662;2023-02-15T05:43:32;98151.94;;;-5.32;100.00
32747;BME280;19118;50.860;13.662;2023-02-15T05:48:33;98144.47;;;-5.19;100.00
32747;BME280;19118;50.860;13.662;2023-02-15T05:53:35;98138.75;;;-5.25;100.00
32747;BME280;19118;50.860;13.662;2023-02-15T05:58:38;98137.78;;;-5.23;100.00
32747;BME280;19118;50.860;13.662;2023-02-15T06:03:39;98132.22;;;-5.33;100.00
32747;BME280;19118;50.860;13.662;2023-02-15T06:08:40;98146.16;;;-5.37;100.00
32747;BME280;19118;50.860;13.662;2023-02-15T06:13:40;98144.50;;;-5.38;100.00
32747;BME280;19118;50.860;13.662;2023-02-15T06:18:41;98138.06;;;-5.29;100.00
32747;BME280;19118;50.860;13.662;2023-02-15T06:23:41;98146.56;;;-5.27;100.00
32747;BME280;19118;50.860;13.662;2023-02-15T06:28:41;98142.81;;;-5.20;100.00
32747;BME280;19118;50.860;13.662;2023-02-15T06:33:42;98151.72;;;-5.08;100.00
32747;BME280;19118;50.860;13.662;2023-02-15T06:38:42;98134.81;;;-4.96;100.00
32747;BME280;19118;50.860;13.662;2023-02-15T06:43:42;98139.81;;;-4.76;100.00
32747;BME280;19118;50.860;13.662;2023-02-15T06:48:43;98134.97;;;-4.65;100.00
32747;BME280;19118;50.860;13.662;2023-02-15T06:53:43;98138.94;;;-4.58;100.00
32747;BME280;19118;50.860;13.662;2023-02-15T06:58:43;98136.66;;;-4.47;100.00
32747;BME280;19118;50.860;13.662;2023-02-15T07:03:46;98130.97;;;-4.36;100.00
32747;BME280;19118;50.860;13.662;2023-02-15T07:08:46;98132.47;;;-4.32;100.00
32747;BME280;19118;50.860;13.662;2023-02-15T07:13:46;98124.03;;;-4.18;100.00
32747;BME280;19118;50.860;13.662;2023-02-15T07:18:47;98116.84;;;-3.96;100.00
32747;BME280;19118;50.860;13.662;2023-02-15T07:23:47;98113.63;;;-3.84;100.00
32747;BME280;19118;50.860;13.662;2023-02-15T07:28:48;98113.25;;;-3.60;100.00
32747;BME280;19118;50.860;13.662;2023-02-15T07:33:48;98112.97;;;-3.40;100.00
32747;BME280;19118;50.860;13.662;2023-02-15T07:38:48;98106.63;;;-3.18;100.00
32747;BME280;19118;50.860;13.662;2023-02-15T07:43:49;98100.25;;;-2.97;100.00
32747;BME280;19118;50.860;13.662;2023-02-15T07:48:49;98095.63;;;-2.76;100.00
32747;BME280;19118;50.860;13.662;2023-02-15T07:53:49;98095.03;;;-2.51;100.00
32747;BME280;19118;50.860;13.662;2023-02-15T07:58:51;98080.84;;;-2.30;100.00
32747;BME280;19118;50.860;13.662;2023-02-15T08:03:53;98078.63;;;-2.08;100.00
32747;BME280;19118;50.860;13.662;2023-02-15T08:08:54;98076.56;;;-1.74;100.00
32747;BME280;19118;50.860;13.662;2023-02-15T08:13:56;98070.41;;;-1.44;100.00
32747;BME280;19118;50.860;13.662;2023-02-15T08:19:02;98068.22;;;-0.97;100.00
32747;BME280;19118;50.860;13.662;2023-02-15T08:24:04;98080.47;;;-0.46;100.00
32747;BME280;19118;50.860;13.662;2023-02-15T08:29:05;98068.63;;;-0.12;100.00
32747;BME280;19118;50.860;13.662;2023-02-15T08:34:07;98063.84;;;0.07;100.00
32747;BME280;19118;50.860;13.662;2023-02-15T08:39:08;98059.75;;;0.28;100.00
32747;BME280;19118;50.860;13.662;2023-02-15T08:44:09;98055.94;;;0.58;100.00
32747;BME280;19118;50.860;13.662;2023-02-15T08:49:14;98047.53;;;1.02;100.00
32747;BME280;19118;50.860;13.662;2023-02-15T08:54:17;98050.81;;;1.28;100.00
32747;BME280;19118;50.860;13.662;2023-02-15T08:59:20;98035.13;;;1.52;100.00
32747;BME280;19118;50.860;13.662;2023-02-15T09:04:21;98023.19;;;1.61;100.00
32747;BME280;19118;50.860;13.662;2023-02-15T09:09:22;98018.22;;;1.80;100.00
32747;BME280;19118;50.860;13.662;2023-02-15T09:14:23;97997.97;;;1.95;100.00
32747;BME280;19118;50.860;13.662;2023-02-15T09:19:25;97986.81;;;2.15;100.00
32747;BME280;19118;50.860;13.662;2023-02-15T09:24:25;97981.88;;;2.44;100.00
32747;BME280;19118;50.860;13.662;2023-02-15T09:29:25;97971.84;;;2.92;100.00
32747;BME280;19118;50.860;13.662;2023-02-15T09:34:26;97962.06;;;3.27;100.00
32747;BME280;19118;50.860;13.662;2023-02-15T09:39:26;97950.25;;;3.53;100.00
32747;BME280;19118;50.860;13.662;2023-02-15T10:00:43;97900.94;;;4.58;100.00
32747;BME280;19118;50.860;13.662;2023-02-15T10:11:05;97896.16;;;5.29;100.00
32747;BME280;19118;50.860;13.662;2023-02-15T10:16:49;97893.81;;;5.73;100.00
32747;BME280;19118;50.860;13.662;2023-02-15T10:27:20;97896.84;;;6.05;100.00
32747;BME280;19118;50.860;13.662;2023-02-15T10:32:26;97901.44;;;6.03;100.00
32747;BME280;19118;50.860;13.662;2023-02-15T10:37:53;97893.94;;;6.08;100.00
32747;BME280;19118;50.860;13.662;2023-02-15T11:10:29;97872.66;;;7.09;100.00
32747;BME280;19118;50.860;13.662;2023-02-15T11:15:34;97873.31;;;7.28;100.00
32747;BME280;19118;50.860;13.662;2023-02-15T11:20:41;97872.38;;;7.38;100.00
32747;BME280;19118;50.860;13.662;2023-02-15T11:25:45;97864.59;;;7.62;100.00
32747;BME280;19118;50.860;13.662;2023-02-15T11:30:50;97873.16;;;7.64;100.00
32747;BME280;19118;50.860;13.662;2023-02-15T11:36:05;97864.41;;;7.98;100.00
32747;BME280;19118;50.860;13.662;2023-02-15T11:41:14;97881.75;;;8.25;100.00
32747;BME280;19118;50.860;13.662;2023-02-15T11:46:17;97880.50;;;8.37;100.00
32747;BME280;19118;50.860;13.662;2023-02-15T11:51:21;97872.75;;;8.35;100.00
32747;BME280;19118;50.860;13.662;2023-02-15T11:56:24;97859.94;;;8.40;100.00
32747;BME280;19118;50.860;13.662;2023-02-15T12:01:33;97862.88;;;8.37;100.00
32747;BME280;19118;50.860;13.662;2023-02-15T12:06:41;97859.94;;;8.40;100.00
32747;BME280;19118;50.860;13.662;2023-02-15T12:11:44;97866.56;;;8.61;100.00
32747;BME280;19118;50.860;13.662;2023-02-15T12:16:53;97857.00;;;8.68;100.00
32747;BME280;19118;50.860;13.662;2023-02-15T12:21:56;97864.56;;;8.79;100.00
32747;BME280;19118;50.860;13.662;2023-02-15T12:27:03;97850.06;;;8.83;100.00
32747;BME280;19118;50.860;13.662;2023-02-15T12:32:05;97851.72;;;9.00;99.16
32747;BME280;19118;50.860;13.662;2023-02-15T12:37:19;97843.63;;;9.02;97.68
32747;BME280;19118;50.860;13.662;2023-02-15T12:42:21;97840.50;;;8.98;96.39
32747;BME280;19118;50.860;13.662;2023-02-15T12:47:22;97833.59;;;8.97;95.35
32747;BME280;19118;50.860;13.662;2023-02-15T12:52:25;97822.69;;;9.09;95.86
32747;BME280;19118;50.860;13.662;2023-02-15T12:57:26;97815.13;;;8.97;95.01
32747;BME280;19118;50.860;13.662;2023-02-15T13:02:41;97805.22;;;9.08;96.90
32747;BME280;19118;50.860;13.662;2023-02-15T13:07:54;97811.78;;;9.03;96.04
32747;BME280;19118;50.860;13.662;2023-02-15T13:12:56;97797.59;;;9.21;94.92
32747;BME280;19118;50.860;13.662;2023-02-15T13:17:58;97804.50;;;9.30;95.96
32747;BME280;19118;50.860;13.662;2023-02-15T13:23:03;97806.41;;;9.52;91.79
32747;BME280;19118;50.860;13.662;2023-02-15T13:28:05;97808.31;;;9.67;90.00
32747;BME280;19118;50.860;13.662;2023-02-15T13:33:35;97808.22;;;9.52;94.20
32747;BME280;19118;50.860;13.662;2023-02-15T13:49:11;97808.81;;;9.15;93.55
32747;BME280;19118;50.860;13.662;2023-02-15T13:54:42;97808.97;;;9.21;95.18
32747;BME280;19118;50.860;13.662;2023-02-15T14:00:05;97807.69;;;9.09;94.67
32747;BME280;19118;50.860;13.662;2023-02-15T14:11:18;97807.72;;;8.68;97.53
32747;BME280;19118;50.860;13.662;2023-02-15T14:17:26;97809.69;;;8.58;100.00
32747;BME280;19118;50.860;13.662;2023-02-15T14:22:07;97814.47;;;8.38;98.72
32747;BME280;19118;50.860;13.662;2023-02-15T14:27:17;97801.06;;;8.24;99.37
32747;BME280;19118;50.860;13.662;2023-02-15T14:32:29;97818.00;;;8.13;100.00
32747;BME280;19118;50.860;13.662;2023-02-15T14:37:49;97811.75;;;7.98;100.00
32747;BME280;19118;50.860;13.662;2023-02-15T14:43:04;97803.78;;;7.73;100.00
32747;BME280;19118;50.860;13.662;2023-02-15T14:48:16;97809.25;;;7.46;100.00
32747;BME280;19118;50.860;13.662;2023-02-15T14:58:30;97812.03;;;7.10;100.00
32747;BME280;19118;50.860;13.662;2023-02-15T15:03:31;97809.75;;;6.89;100.00
32747;BME280;19118;50.860;13.662;2023-02-15T15:08:36;97811.44;;;6.72;100.00
32747;BME280;19118;50.860;13.662;2023-02-15T15:13:38;97806.22;;;6.55;100.00
32747;BME280;19118;50.860;13.662;2023-02-15T15:18:45;97803.75;;;6.18;100.00
32747;BME280;19118;50.860;13.662;2023-02-15T15:23:46;97810.31;;;5.86;100.00
32747;BME280;19118;50.860;13.662;2023-02-15T15:39:20;97794.75;;;4.83;100.00
32747;BME280;19118;50.860;13.662;2023-02-15T15:49:47;97770.84;;;3.91;100.00
32747;BME280;19118;50.860;13.662;2023-02-15T15:54:50;97763.47;;;3.46;100.00
32747;BME280;19118;50.860;13.662;2023-02-15T15:59:53;97755.53;;;3.07;100.00
32747;BME280;19118;50.860;13.662;2023-02-15T16:05:06;97759.72;;;2.68;100.00
32747;BME280;19118;50.860;13.662;2023-02-15T16:10:23;97758.75;;;2.39;100.00
32747;BME280;19118;50.860;13.662;2023-02-15T16:15:31;97750.75;;;1.98;100.00
32747;BME280;19118;50.860;13.662;2023-02-15T16:20:35;97758.00;;;1.63;100.00
32747;BME280;19118;50.860;13.662;2023-02-15T16:31:19;97760.34;;;1.00;100.00
32747;BME280;19118;50.860;13.662;2023-02-15T16:36:22;97767.81;;;0.71;100.00
32747;BME280;19118;50.860;13.662;2023-02-15T16:41:25;97769.16;;;0.42;100.00
32747;BME280;19118;50.860;13.662;2023-02-15T16:51:32;97757.97;;;0.06;100.00
32747;BME280;19118;50.860;13.662;2023-02-15T16:56:33;97756.94;;;-0.15;100.00
32747;BME280;19118;50.860;13.662;2023-02-15T17:01:34;97764.47;;;-0.23;100.00
32747;BME280;19118;50.860;13.662;2023-02-15T17:06:34;97767.81;;;-0.34;100.00
32747;BME280;19118;50.860;13.662;2023-02-15T17:11:39;97766.22;;;-0.48;100.00
32747;BME280;19118;50.860;13.662;2023-02-15T17:17:12;97760.84;;;-0.57;100.00
32747;BME280;19118;50.860;13.662;2023-02-15T17:22:21;97766.34;;;-0.49;100.00
32747;BME280;19118;50.860;13.662;2023-02-15T17:27:24;97772.31;;;-0.60;100.00
32747;BME280;19118;50.860;13.662;2023-02-15T17:32:28;97776.59;;;-0.72;100.00
32747;BME280;19118;50.860;13.662;2023-02-15T17:37:43;97771.84;;;-0.78;100.00
32747;BME280;19118;50.860;13.662;2023-02-15T17:42:44;97777.16;;;-0.92;100.00
32747;BME280;19118;50.860;13.662;2023-02-15T17:47:46;97774.91;;;-0.97;100.00
32747;BME280;19118;50.860;13.662;2023-02-15T17:52:47;97779.88;;;-1.06;100.00
32747;BME280;19118;50.860;13.662;2023-02-15T17:57:47;97784.25;;;-1.20;100.00
32747;BME280;19118;50.860;13.662;2023-02-15T18:02:48;97790.06;;;-1.16;100.00
32747;BME280;19118;50.860;13.662;2023-02-15T18:08:26;97780.63;;;-1.30;100.00
32747;BME280;19118;50.860;13.662;2023-02-15T18:13:45;97798.25;;;-1.48;100.00
32747;BME280;19118;50.860;13.662;2023-02-15T18:18:46;97793.63;;;-1.42;100.00
32747;BME280;19118;50.860;13.662;2023-02-15T18:23:46;97796.41;;;-1.58;100.00
32747;BME280;19118;50.860;13.662;2023-02-15T18:28:47;97786.94;;;-1.72;100.00
32747;BME280;19118;50.860;13.662;2023-02-15T18:33:58;97792.94;;;-1.84;100.00
32747;BME280;19118;50.860;13.662;2023-02-15T18:38:59;97785.38;;;-1.87;100.00
32747;BME280;19118;50.860;13.662;2023-02-15T18:44:02;97795.59;;;-1.98;100.00
32747;BME280;19118;50.860;13.662;2023-02-15T18:49:02;97798.69;;;-2.06;100.00
32747;BME280;19118;50.860;13.662;2023-02-15T18:54:05;97793.59;;;-2.08;100.00
32747;BME280;19118;50.860;13.662;2023-02-15T18:59:14;97805.03;;;-1.97;100.00
32747;BME280;19118;50.860;13.662;2023-02-15T19:04:15;97813.63;;;-1.97;100.00
32747;BME280;19118;50.860;13.662;2023-02-15T19:09:21;97809.00;;;-2.19;100.00
32747;BME280;19118;50.860;13.662;2023-02-15T19:14:26;97811.94;;;-2.11;100.00
32747;BME280;19118;50.860;13.662;2023-02-15T19:19:27;97815.84;;;-2.18;100.00
32747;BME280;19118;50.860;13.662;2023-02-15T19:24:46;97817.22;;;-2.12;100.00
32747;BME280;19118;50.860;13.662;2023-02-15T19:29:47;97813.22;;;-2.03;100.00
32747;BME280;19118;50.860;13.662;2023-02-15T19:34:48;97812.44;;;-1.91;100.00
32747;BME280;19118;50.860;13.662;2023-02-15T19:39:48;97818.34;;;-1.89;100.00
32747;BME280;19118;50.860;13.662;2023-02-15T19:44:50;97805.88;;;-1.84;100.00
32747;BME280;19118;50.860;13.662;2023-02-15T19:49:50;97804.69;;;-1.79;100.00
32747;BME280;19118;50.860;13.662;2023-02-15T19:54:52;97800.53;;;-1.81;100.00
32747;BME280;19118;50.860;13.662;2023-02-15T19:59:53;97793.16;;;-1.74;100.00
32747;BME280;19118;50.860;13.662;2023-02-15T20:04:53;97784.56;;;-1.75;100.00
32747;BME280;19118;50.860;13.662;2023-02-15T20:09:54;97771.81;;;-1.65;100.00
32747;BME280;19118;50.860;13.662;2023-02-15T20:14:55;97764.16;;;-1.67;100.00
32747;BME280;19118;50.860;13.662;2023-02-15T20:19:57;97755.53;;;-1.55;100.00
32747;BME280;19118;50.860;13.662;2023-02-15T20:24:57;97740.28;;;-1.34;100.00
32747;BME280;19118;50.860;13.662;2023-02-15T20:29:58;97732.69;;;-1.24;100.00
32747;BME280;19118;50.860;13.662;2023-02-15T20:34:58;97719.03;;;-0.90;100.00
32747;BME280;19118;50.860;13.662;2023-02-15T20:40:00;97706.06;;;-0.66;100.00
32747;BME280;19118;50.860;13.662;2023-02-15T20:45:00;97694.50;;;-0.62;100.00
32747;BME280;19118;50.860;13.662;2023-02-15T20:50:02;97682.66;;;-0.42;100.00
32747;BME280;19118;50.860;13.662;2023-02-15T20:55:13;97680.81;;;-0.28;100.00
32747;BME280;19118;50.860;13.662;2023-02-15T21:00:20;97673.03;;;-0.28;100.00
32747;BME280;19118;50.860;13.662;2023-02-15T21:05:22;97669.41;;;-0.15;100.00
32747;BME280;19118;50.860;13.662;2023-02-15T21:10:29;97653.72;;;-0.02;100.00
32747;BME280;19118;50.860;13.662;2023-02-15T21:15:31;97643.88;;;-0.21;100.00
32747;BME280;19118;50.860;13.662;2023-02-15T21:20:33;97638.38;;;-0.40;100.00
32747;BME280;19118;50.860;13.662;2023-02-15T21:25:36;97647.84;;;-0.39;100.00
32747;BME280;19118;50.860;13.662;2023-02-15T21:30:36;97634.00;;;-0.40;100.00
32747;BME280;19118;50.860;13.662;2023-02-15T21:35:37;97638.53;;;-0.31;100.00
32747;BME280;19118;50.860;13.662;2023-02-15T21:40:37;97636.88;;;-0.32;100.00
32747;BME280;19118;50.860;13.662;2023-02-15T21:45:38;97634.63;;;-0.25;100.00
32747;BME280;19118;50.860;13.662;2023-02-15T21:51:16;97627.53;;;-0.34;100.00
32747;BME280;19118;50.860;13.662;2023-02-15T21:56:35;97633.78;;;-0.37;100.00
32747;BME280;19118;50.860;13.662;2023-02-15T22:01:35;97626.47;;;-0.43;100.00
32747;BME280;19118;50.860;13.662;2023-02-15T22:06:36;97634.69;;;-0.49;100.00
32747;BME280;19118;50.860;13.662;2023-02-15T22:11:36;97621.59;;;-0.47;100.00
32747;BME280;19118;50.860;13.662;2023-02-15T22:16:37;97620.13;;;-0.63;100.00
32747;BME280;19118;50.860;13.662;2023-02-15T22:21:37;97623.03;;;-0.78;100.00
32747;BME280;19118;50.860;13.662;2023-02-15T22:26:37;97617.59;;;-0.75;100.00
32747;BME280;19118;50.860;13.662;2023-02-15T22:31:38;97615.94;;;-0.76;100.00
32747;BME280;19118;50.860;13.662;2023-02-15T22:36:38;97618.50;;;-0.88;100.00
32747;BME280;19118;50.860;13.662;2023-02-15T22:41:38;97624.78;;;-0.55;100.00
32747;BME280;19118;50.860;13.662;2023-02-15T22:46:39;97618.44;;;-0.40;100.00
32747;BME280;19118;50.860;13.662;2023-02-15T22:51:39;97614.22;;;-0.30;100.00
32747;BME280;19118;50.860;13.662;2023-02-15T22:56:47;97616.81;;;-0.30;100.00
32747;BME280;19118;50.860;13.662;2023-02-15T23:01:48;97617.09;;;0.01;100.00
32747;BME280;19118;50.860;13.662;2023-02-15T23:06:49;97615.78;;;0.07;100.00
32747;BME280;19118;50.860;13.662;2023-02-15T23:11:51;97608.94;;;0.39;100.00
32747;BME280;19118;50.860;13.662;2023-02-15T23:16:52;97618.25;;;0.64;100.00
32747;BME280;19118;50.860;13.662;2023-02-15T23:21:53;97613.53;;;0.69;100.00
32747;BME280;19118;50.860;13.662;2023-02-15T23:26:53;97622.63;;;0.75;100.00
32747;BME280;19118;50.860;13.662;2023-02-15T23:31:54;97620.59;;;0.78;100.00
32747;BME280;19118;50.860;13.662;2023-02-15T23:36:55;97622.66;;;0.52;100.00
32747;BME280;19118;50.860;13.662;2023-02-15T23:41:57;97632.94;;;0.20;100.00
32747;BME280;19118;50.860;13.662;2023-02-15T23:46:57;97634.13;;;0.05;100.00
32747;BME280;19118;50.860;13.662;2023-02-15T23:51:58;97627.91;;;-0.27;100.00
32747;BME280;19118;50.860;13.662;2023-02-15T23:57:00;97632.72;;;-0.34;100.00
